Terminal Aerodrome Forecast
Issued by NWS

Home | Current Version | Previous Version | Text Only | Print | Product List | Glossary On
Versions: 1 2 3 4 5 6 7 8 9 10 11 12 13 14 15 16 17 18 19 20 21 22
000
FTUS46 KSGX 290520
TAFCRQ
TAF
KCRQ 290520Z 2906/3006 VRB04KT P6SM OVC010
     FM291700 VRB04KT P6SM SCT012
     FM292000 26008KT P6SM SCT200
     FM300100 VRB04KT P6SM OVC015=

USA.gov is the U.S. government's official web portal to all federal, state and local government web resources and services.